Time;durP1;ratioP1;P1;durP2;ratioP2;P2;SDS_P1;SDS_P2;PMS_P1;PMS_P2;Temp;Humidity;BMP_temperature;BMP_pressure;BME280_temperature;BME280_humidity;BME280_pressure;Samples;Min_cycle;Max_cycle;Signal;HPM_P1;HPM_P2
2022/07/22 00:00:48;;;;;;;1999.90;999.90;;;20.10;99.90;;;;;;5051647;28;20458;-69
2022/07/22 00:03:15;;;;;;;1999.90;999.90;;;20.20;99.90;;;;;;5052261;28;20473;-69
2022/07/22 00:05:42;;;;;;;1999.90;999.90;;;20.20;99.90;;;;;;5054561;28;20508;-69
2022/07/22 00:08:10;;;;;;;1999.90;999.90;;;20.10;99.90;;;;;;5049926;28;20486;-69
2022/07/22 00:10:36;;;;;;;1999.90;999.90;;;20.20;99.90;;;;;;5055848;28;20878;-69
2022/07/22 00:13:03;;;;;;;1999.90;999.90;;;20.20;99.90;;;;;;5053195;28;20496;-68
2022/07/22 00:15:30;;;;;;;1999.90;999.90;;;20.20;99.90;;;;;;5052518;28;20609;-67
2022/07/22 00:17:57;;;;;;;1999.90;999.90;;;20.20;99.90;;;;;;5065532;22;20498;-72
2022/07/22 00:20:23;;;;;;;1999.90;999.90;;;20.20;99.90;;;;;;5025368;28;20459;-72
2022/07/22 00:22:50;;;;;;;1999.90;999.90;;;20.20;99.90;;;;;;5028065;28;20467;-72
2022/07/22 00:25:18;;;;;;;1999.90;999.90;;;20.20;99.90;;;;;;5033219;28;20470;-72
2022/07/22 00:27:45;;;;;;;1999.90;999.90;;;20.30;99.90;;;;;;5031065;28;20614;-71
2022/07/22 00:30:12;;;;;;;1999.90;999.90;;;20.30;99.90;;;;;;5032520;28;20451;-72
2022/07/22 00:32:39;;;;;;;1999.90;999.90;;;20.30;99.90;;;;;;5033222;28;20483;-72
2022/07/22 00:35:07;;;;;;;1999.90;999.90;;;20.40;99.90;;;;;;5031661;28;20462;-72
2022/07/22 00:37:34;;;;;;;1999.90;999.90;;;20.40;99.90;;;;;;5031005;28;20462;-70
2022/07/22 00:40:00;;;;;;;1999.90;999.90;;;20.30;99.90;;;;;;5031049;28;20560;-70
2022/07/22 00:42:28;;;;;;;1999.90;999.90;;;20.40;99.90;;;;;;5031139;28;20460;-72
2022/07/22 00:44:55;;;;;;;1999.90;999.90;;;20.30;99.90;;;;;;5033542;28;20467;-72
2022/07/22 00:47:22;;;;;;;1999.90;999.90;;;20.30;99.90;;;;;;5030452;28;20527;-72
2022/07/22 00:49:48;;;;;;;1999.90;999.90;;;20.30;99.90;;;;;;5032560;28;20882;-72
2022/07/22 00:52:15;;;;;;;1999.90;999.90;;;20.30;99.90;;;;;;5032141;28;20486;-72
2022/07/22 00:54:42;;;;;;;1999.90;999.90;;;20.20;99.90;;;;;;5033343;28;20467;-77
2022/07/22 00:57:08;;;;;;;1999.90;999.90;;;20.40;99.90;;;;;;5030948;28;20875;-72
2022/07/22 00:59:37;;;;;;;1999.90;999.90;;;20.20;99.90;;;;;;5031605;28;20494;-71
2022/07/22 01:02:03;;;;;;;1999.90;999.90;;;20.30;99.90;;;;;;5028506;28;20463;-72
2022/07/22 01:04:30;;;;;;;1999.90;999.90;;;20.30;99.90;;;;;;5031028;28;20513;-72
2022/07/22 01:06:57;;;;;;;1999.90;999.90;;;20.30;99.90;;;;;;5031024;28;20462;-73
2022/07/22 01:09:24;;;;;;;1999.90;999.90;;;20.30;99.90;;;;;;5031659;28;20841;-72
2022/07/22 01:11:51;;;;;;;1999.90;999.90;;;20.20;99.90;;;;;;5029105;28;20491;-72
2022/07/22 01:14:18;;;;;;;1999.90;999.90;;;20.20;99.90;;;;;;5030430;28;20471;-72
2022/07/22 01:16:46;;;;;;;1999.90;999.90;;;20.10;99.90;;;;;;5030872;28;20844;-72
2022/07/22 01:19:13;;;;;;;1999.90;999.90;;;20.40;99.90;;;;;;5031367;28;20898;-72
2022/07/22 01:21:41;;;;;;;1999.90;999.90;;;20.20;99.90;;;;;;5032740;28;20459;-72
2022/07/22 01:24:07;;;;;;;1999.90;999.90;;;20.10;99.90;;;;;;5030805;28;20463;-72
2022/07/22 01:26:34;;;;;;;1999.90;999.90;;;20.10;99.90;;;;;;5031369;28;20513;-72
2022/07/22 01:29:01;;;;;;;1999.90;999.90;;;19.90;99.90;;;;;;5031772;28;20978;-72
2022/07/22 01:31:29;;;;;;;1999.90;999.90;;;19.90;99.90;;;;;;5031919;28;20482;-72
2022/07/22 01:33:56;;;;;;;1999.90;999.90;;;20.10;99.90;;;;;;5031717;28;20489;-72
2022/07/22 01:36:22;;;;;;;1999.90;999.90;;;20.20;99.90;;;;;;5031001;28;20525;-72
2022/07/22 01:38:50;;;;;;;1999.90;999.90;;;20.20;99.90;;;;;;5031613;28;20549;-72
2022/07/22 01:41:17;;;;;;;1999.90;999.90;;;20.30;99.90;;;;;;5031681;28;20463;-72
2022/07/22 01:43:44;;;;;;;1999.90;999.90;;;20.30;99.90;;;;;;5031778;28;20923;-71
2022/07/22 01:46:10;;;;;;;1999.90;999.90;;;20.30;99.90;;;;;;5031978;28;20463;-72
2022/07/22 01:48:37;;;;;;;1999.90;999.90;;;20.20;99.90;;;;;;5031369;28;20537;-72
2022/07/22 01:51:05;;;;;;;1999.90;999.90;;;20.00;99.90;;;;;;5031528;28;20494;-71
2022/07/22 01:53:31;;;;;;;1999.90;999.90;;;20.00;99.90;;;;;;5031015;28;20517;-72
2022/07/22 01:55:59;;;;;;;1999.90;999.90;;;20.10;99.90;;;;;;5031740;28;20493;-72
2022/07/22 01:58:26;;;;;;;1999.90;999.90;;;20.00;99.90;;;;;;5030963;28;20482;-72
2022/07/22 02:00:53;;;;;;;1999.90;999.90;;;20.00;99.90;;;;;;5029627;28;20467;-71
2022/07/22 02:03:20;;;;;;;1999.90;999.90;;;20.10;99.90;;;;;;5030752;28;20509;-72
2022/07/22 02:05:46;;;;;;;1999.90;999.90;;;20.10;99.90;;;;;;5030319;28;20513;-72
2022/07/22 02:08:13;;;;;;;1999.90;999.90;;;20.20;99.90;;;;;;5029657;28;20479;-72
2022/07/22 02:10:40;;;;;;;1999.90;999.90;;;20.10;99.90;;;;;;5030008;28;20961;-73
2022/07/22 02:13:08;;;;;;;1999.90;999.90;;;20.00;99.90;;;;;;5028821;28;20544;-71
2022/07/22 02:15:35;;;;;;;1999.90;999.90;;;20.10;99.90;;;;;;5030525;28;20522;-72
2022/07/22 02:18:10;;;;;;;1999.90;999.90;;;20.00;99.90;;;;;;5032955;28;20479;-72
2022/07/22 02:20:37;;;;;;;1999.90;999.90;;;20.10;99.90;;;;;;5032916;28;20450;-72
2022/07/22 02:23:04;;;;;;;1999.90;999.90;;;20.00;99.90;;;;;;5031141;28;20516;-70
2022/07/22 02:25:30;;;;;;;1999.90;999.90;;;20.00;99.90;;;;;;5031018;28;20465;-72
2022/07/22 02:27:57;;;;;;;1999.90;999.90;;;20.10;99.90;;;;;;5030321;28;20486;-73
2022/07/22 02:30:25;;;;;;;1999.90;999.90;;;20.10;99.90;;;;;;5030032;28;20455;-72
2022/07/22 02:32:52;;;;;;;1999.90;999.90;;;20.10;99.90;;;;;;5031109;28;20479;-72
2022/07/22 02:35:18;;;;;;;1999.90;999.90;;;20.10;99.90;;;;;;5030665;28;20459;-72
2022/07/22 02:37:45;;;;;;;1999.90;999.90;;;20.20;99.90;;;;;;5029498;28;21471;-72
2022/07/22 02:40:12;;;;;;;1999.90;999.90;;;20.10;99.90;;;;;;5028859;28;20478;-72
2022/07/22 02:42:39;;;;;;;1999.90;999.90;;;20.10;99.90;;;;;;5029099;28;20947;-72
2022/07/22 02:45:07;;;;;;;1999.90;999.90;;;20.10;99.90;;;;;;5031135;28;20470;-70
2022/07/22 02:47:35;;;;;;;1999.90;999.90;;;19.80;99.90;;;;;;5029998;28;20481;-72
2022/07/22 02:50:01;;;;;;;1999.90;999.90;;;19.80;99.90;;;;;;5030582;28;20518;-72
2022/07/22 02:52:28;;;;;;;1999.90;999.90;;;19.70;99.90;;;;;;5030667;28;20479;-71
2022/07/22 02:54:55;;;;;;;1999.90;999.90;;;19.70;99.90;;;;;;5031291;28;20489;-72
2022/07/22 02:57:21;;;;;;;1999.90;999.90;;;19.80;99.90;;;;;;5030684;28;20474;-72
2022/07/22 02:59:48;;;;;;;1999.90;999.90;;;19.80;99.90;;;;;;5028990;28;20475;-72
2022/07/22 03:02:15;;;;;;;1999.90;999.90;;;19.80;99.90;;;;;;5029801;28;20459;-72
2022/07/22 03:04:43;;;;;;;1999.90;999.90;;;19.70;99.90;;;;;;5029469;28;20471;-72
2022/07/22 03:07:09;;;;;;;1999.90;999.90;;;19.70;99.90;;;;;;5026285;28;20470;-70
2022/07/22 03:09:36;;;;;;;1999.90;999.90;;;19.50;99.90;;;;;;5028611;28;20479;-73
2022/07/22 03:12:03;;;;;;;1999.90;999.90;;;19.50;99.90;;;;;;5025241;28;20546;-71
2022/07/22 03:14:29;;;;;;;1999.90;999.90;;;19.40;99.90;;;;;;5026581;28;20463;-71
2022/07/22 03:16:56;;;;;;;1999.90;999.90;;;19.40;99.90;;;;;;5029016;28;20853;-74
2022/07/22 03:19:22;;;;;;;1999.90;999.90;;;19.50;99.90;;;;;;5026374;28;20521;-74
2022/07/22 03:21:50;;;;;;;1999.90;999.90;;;19.50;99.90;;;;;;5027846;28;20465;-74
2022/07/22 03:24:17;;;;;;;1999.90;999.90;;;19.40;99.90;;;;;;5027102;28;20513;-74
2022/07/22 03:26:44;;;;;;;1999.90;999.90;;;19.40;99.90;;;;;;5028839;28;20509;-70
2022/07/22 03:29:10;;;;;;;1999.90;999.90;;;19.30;99.90;;;;;;5028128;28;20533;-71
2022/07/22 03:31:37;;;;;;;1999.90;999.90;;;19.40;99.90;;;;;;5029849;28;20490;-72
2022/07/22 03:34:04;;;;;;;1999.90;999.90;;;19.40;99.90;;;;;;5031489;28;20463;-73
2022/07/22 03:36:30;;;;;;;1999.90;999.90;;;19.40;99.90;;;;;;5028401;28;20467;-72
2022/07/22 03:38:58;;;;;;;1999.90;999.90;;;19.40;99.90;;;;;;5029945;28;21002;-72
2022/07/22 03:41:25;;;;;;;1999.90;999.90;;;19.60;99.90;;;;;;5029791;28;20467;-72
2022/07/22 03:43:52;;;;;;;1999.90;999.90;;;19.70;99.90;;;;;;5030978;28;20517;-72
2022/07/22 03:46:19;;;;;;;1999.90;999.90;;;19.70;99.90;;;;;;5028974;28;20525;-73
2022/07/22 03:48:45;;;;;;;1999.90;999.90;;;19.90;99.90;;;;;;5029466;28;20487;-72
2022/07/22 03:51:12;;;;;;;1999.90;999.90;;;19.80;99.90;;;;;;5029533;28;20462;-69
2022/07/22 03:53:39;;;;;;;1999.90;999.90;;;19.90;99.90;;;;;;5030142;28;20513;-72
2022/07/22 03:56:08;;;;;;;1999.90;999.90;;;19.80;99.90;;;;;;5030297;28;21021;-70
2022/07/22 03:58:34;;;;;;;1999.90;999.90;;;19.80;99.90;;;;;;5028540;28;20482;-71
2022/07/22 04:01:01;;;;;;;1999.90;999.90;;;19.70;99.90;;;;;;5028497;28;20471;-72
2022/07/22 04:03:27;;;;;;;1999.90;999.90;;;19.70;99.90;;;;;;5027846;28;20459;-72
2022/07/22 04:05:54;;;;;;;1999.90;999.90;;;19.80;99.90;;;;;;5030064;28;20471;-73
2022/07/22 04:08:21;;;;;;;1999.90;999.90;;;19.80;99.90;;;;;;5029171;28;20487;-72
2022/07/22 04:10:47;;;;;;;1999.90;999.90;;;19.90;99.90;;;;;;5027808;28;20463;-72
2022/07/22 04:13:15;;;;;;;1999.90;999.90;;;20.00;99.90;;;;;;5027676;28;20471;-70
2022/07/22 04:15:42;;;;;;;1999.90;999.90;;;20.10;99.90;;;;;;5028364;28;20451;-72
2022/07/22 04:18:09;;;;;;;1999.90;999.90;;;20.10;99.90;;;;;;5032084;28;20499;-71
2022/07/22 04:20:35;;;;;;;1999.90;999.90;;;20.10;99.90;;;;;;5033693;28;20504;-72
2022/07/22 04:23:02;;;;;;;1999.90;999.90;;;20.10;99.90;;;;;;5032492;28;20463;-71
2022/07/22 04:25:29;;;;;;;1999.90;999.90;;;20.20;99.90;;;;;;5032303;28;20520;-72
2022/07/22 04:27:56;;;;;;;1999.90;999.90;;;20.20;99.90;;;;;;5033365;28;20483;-72
2022/07/22 04:30:24;;;;;;;1999.90;999.90;;;20.10;99.90;;;;;;5032034;28;20558;-72
2022/07/22 04:32:51;;;;;;;1999.90;999.90;;;20.20;99.90;;;;;;5031461;28;20487;-71
2022/07/22 04:35:17;;;;;;;1999.90;999.90;;;20.30;99.90;;;;;;5033299;28;20505;-71
2022/07/22 04:37:44;;;;;;;1999.90;999.90;;;20.30;99.90;;;;;;5032005;28;20483;-71
2022/07/22 04:40:12;;;;;;;1999.90;999.90;;;20.70;99.90;;;;;;5032829;28;20466;-73
2022/07/22 04:42:39;;;;;;;1999.90;999.90;;;20.40;99.90;;;;;;5032364;28;20914;-70
2022/07/22 04:45:06;;;;;;;1999.90;999.90;;;20.40;99.90;;;;;;5033766;28;20520;-72
2022/07/22 04:47:34;;;;;;;1999.90;999.90;;;20.20;99.90;;;;;;5032603;28;20658;-72
2022/07/22 04:50:01;;;;;;;1999.90;999.90;;;20.20;99.90;;;;;;5031448;28;20521;-72
2022/07/22 04:52:27;;;;;;;1999.90;999.90;;;20.10;99.90;;;;;;5031573;28;20535;-73
2022/07/22 04:54:54;;;;;;;1999.90;999.90;;;20.10;99.90;;;;;;5031814;28;20470;-72
2022/07/22 04:57:21;;;;;;;1999.90;999.90;;;19.90;99.90;;;;;;5032003;28;20463;-71
2022/07/22 04:59:47;;;;;;;1999.90;999.90;;;19.80;99.90;;;;;;5032594;28;20471;-72
2022/07/22 05:02:14;;;;;;;1999.90;999.90;;;19.80;99.90;;;;;;5030824;28;20459;-70
2022/07/22 05:04:42;;;;;;;1999.90;999.90;;;19.70;99.90;;;;;;5032908;28;20459;-71
2022/07/22 05:07:09;;;;;;;1999.90;999.90;;;19.40;99.90;;;;;;5032381;28;20463;-69
2022/07/22 05:09:35;;;;;;;1999.90;999.90;;;19.30;99.90;;;;;;5032391;28;20490;-71
2022/07/22 05:12:03;;;;;;;1999.90;999.90;;;19.20;99.90;;;;;;5032569;28;20451;-73
2022/07/22 05:14:30;;;;;;;1999.90;999.90;;;19.10;99.90;;;;;;5031797;28;20896;-72
2022/07/22 05:16:57;;;;;;;1999.90;999.90;;;19.00;99.90;;;;;;5030839;28;20471;-73
2022/07/22 05:19:24;;;;;;;1999.90;999.90;;;19.00;99.90;;;;;;5029351;28;20487;-74
2022/07/22 05:21:52;;;;;;;1999.90;999.90;;;19.00;99.90;;;;;;5030685;28;20517;-74
2022/07/22 05:24:18;;;;;;;1999.90;999.90;;;18.90;99.90;;;;;;5032053;28;20467;-74
2022/07/22 05:26:45;;;;;;;1999.90;999.90;;;18.80;99.90;;;;;;5032308;28;20537;-75
2022/07/22 05:29:11;;;;;;;1999.90;999.90;;;18.70;99.90;;;;;;5029014;28;20487;-73
2022/07/22 05:31:38;;;;;;;1999.90;999.90;;;18.60;99.90;;;;;;5031380;28;20515;-72
2022/07/22 05:34:06;;;;;;;1999.90;999.90;;;18.50;99.90;;;;;;5032130;28;20498;-75
2022/07/22 05:36:32;;;;;;;1999.90;999.90;;;18.40;99.90;;;;;;5030188;28;20479;-75
2022/07/22 05:39:00;;;;;;;1999.90;999.90;;;18.30;99.90;;;;;;5031696;28;20504;-74
2022/07/22 05:41:27;;;;;;;1999.90;999.90;;;18.60;99.90;;;;;;5028350;28;20467;-75
2022/07/22 05:43:53;;;;;;;1999.90;999.90;;;18.10;99.90;;;;;;5031462;28;20475;-74
2022/07/22 05:46:20;;;;;;;1999.90;999.90;;;18.00;99.90;;;;;;5030990;28;20882;-74
2022/07/22 05:48:47;;;;;;;1999.90;999.90;;;17.90;99.90;;;;;;5031413;28;20557;-74
2022/07/22 05:51:14;;;;;;;1999.90;999.90;;;17.90;99.90;;;;;;5030402;28;20467;-78
2022/07/22 05:53:42;;;;;;;1999.90;999.90;;;17.80;99.90;;;;;;5030655;28;20487;-74
2022/07/22 05:56:11;;;;;;;1999.90;999.90;;;17.80;99.90;;;;;;5031781;28;20550;-74
2022/07/22 05:58:38;;;;;;;1999.90;999.90;;;17.80;99.90;;;;;;5028883;28;21090;-75
2022/07/22 06:01:05;;;;;;;1999.90;999.90;;;17.70;99.90;;;;;;5030438;28;20471;-74
2022/07/22 06:03:32;;;;;;;1999.90;999.90;;;17.70;99.90;;;;;;5028654;28;21176;-74
2022/07/22 06:05:58;;;;;;;1999.90;999.90;;;17.70;99.90;;;;;;5030965;28;20491;-74
2022/07/22 06:08:25;;;;;;;1999.90;999.90;;;17.70;99.90;;;;;;5029932;28;20483;-75
2022/07/22 06:10:52;;;;;;;1999.90;999.90;;;17.70;99.90;;;;;;5030702;28;20467;-72
2022/07/22 06:13:20;;;;;;;1999.90;999.90;;;17.60;99.90;;;;;;5028799;28;20478;-74
2022/07/22 06:15:47;;;;;;;1999.90;999.90;;;17.60;99.90;;;;;;5029398;28;20820;-72
2022/07/22 06:18:14;;;;;;;1999.90;999.90;;;17.60;99.90;;;;;;5038884;28;20478;-75
2022/07/22 06:20:41;;;;;;;1999.90;999.90;;;17.60;99.90;;;;;;5049345;22;20517;-69
2022/07/22 06:23:07;;;;;;;1999.90;999.90;;;17.70;99.90;;;;;;5046961;28;20467;-69
2022/07/22 06:25:34;;;;;;;1999.90;999.90;;;17.70;99.90;;;;;;5046407;28;20963;-69
2022/07/22 06:28:00;;;;;;;1999.90;999.90;;;17.80;99.90;;;;;;5047323;28;20490;-69
2022/07/22 06:30:29;;;;;;;1999.90;999.90;;;17.90;99.90;;;;;;5048999;28;20949;-68
2022/07/22 06:32:55;;;;;;;1999.90;999.90;;;17.90;99.90;;;;;;5050174;28;20993;-69
2022/07/22 06:35:24;;;;;;;1999.90;999.90;;;18.00;99.90;;;;;;5047089;28;20542;-69
2022/07/22 06:37:51;;;;;;;1999.90;999.90;;;18.00;99.90;;;;;;5049406;28;20528;-69
2022/07/22 06:40:18;;;;;;;1999.90;999.90;;;18.00;99.90;;;;;;5045515;28;20535;-69
2022/07/22 06:42:44;;;;;;;1999.90;999.90;;;18.10;99.90;;;;;;5047777;28;20871;-69
2022/07/22 06:45:11;;;;;;;1999.90;999.90;;;18.10;99.90;;;;;;5050266;28;20458;-69
2022/07/22 06:47:39;;;;;;;1999.90;999.90;;;18.10;99.90;;;;;;5048507;28;20516;-69
2022/07/22 06:50:08;;;;;;;1999.90;999.90;;;18.20;99.90;;;;;;5046295;28;20835;-68
2022/07/22 06:52:34;;;;;;;1999.90;999.90;;;18.10;99.90;;;;;;5049208;28;20501;-69
2022/07/22 06:55:01;;;;;;;1999.90;999.90;;;18.00;99.90;;;;;;5050455;28;20516;-69
2022/07/22 06:57:28;;;;;;;1999.90;999.90;;;17.90;99.90;;;;;;5045758;28;20458;-69
2022/07/22 06:59:54;;;;;;;1999.90;999.90;;;17.90;99.90;;;;;;5048005;28;20512;-69
2022/07/22 07:02:21;;;;;;;1999.90;999.90;;;17.90;99.90;;;;;;5047388;28;20478;-69
2022/07/22 07:04:49;;;;;;;1999.90;999.90;;;18.00;99.90;;;;;;5043920;28;20474;-69
2022/07/22 07:07:16;;;;;;;1999.90;999.90;;;18.10;99.90;;;;;;5045754;28;20462;-68
2022/07/22 07:09:42;;;;;;;1999.90;999.90;;;18.20;99.90;;;;;;5050806;28;20469;-69
2022/07/22 07:12:09;;;;;;;1999.90;999.90;;;18.30;99.90;;;;;;5051720;28;20535;-69
2022/07/22 07:14:36;;;;;;;1999.90;999.90;;;18.40;99.90;;;;;;5051568;28;20482;-69
2022/07/22 07:17:02;;;;;;;1999.90;999.90;;;18.40;99.90;;;;;;5051081;28;20466;-70
2022/07/22 07:19:30;;;;;;;1999.90;999.90;;;18.40;99.90;;;;;;5052037;28;20438;-69
2022/07/22 07:21:58;;;;;;;1999.90;999.90;;;18.30;99.90;;;;;;5046775;28;20544;-69
2022/07/22 07:24:24;;;;;;;1999.90;999.90;;;18.30;99.90;;;;;;5050157;28;20462;-69
2022/07/22 07:26:51;;;;;;;1999.90;999.90;;;18.30;99.90;;;;;;5052926;28;20446;-69
2022/07/22 07:29:17;;;;;;;1999.90;999.90;;;18.30;99.90;;;;;;5050867;28;20453;-69
2022/07/22 07:31:44;;;;;;;1999.90;999.90;;;18.40;99.90;;;;;;5051831;28;20458;-69
2022/07/22 07:34:11;;;;;;;1999.90;999.90;;;18.40;99.90;;;;;;5050520;28;20528;-69
2022/07/22 07:36:37;;;;;;;1999.90;999.90;;;18.50;99.90;;;;;;5050583;28;20516;-66
2022/07/22 07:39:06;;;;;;;1999.90;999.90;;;18.50;99.90;;;;;;5051357;28;20476;-66
2022/07/22 07:41:32;;;;;;;1999.90;999.90;;;18.50;99.90;;;;;;5050966;28;20469;-67
2022/07/22 07:43:59;;;;;;;1999.90;999.90;;;18.70;99.90;;;;;;5051460;28;20438;-66
2022/07/22 07:46:26;;;;;;;1999.90;999.90;;;18.80;99.90;;;;;;5050447;28;20470;-66
2022/07/22 07:48:52;;;;;;;1999.90;999.90;;;18.80;99.90;;;;;;5051364;28;20442;-66
2022/07/22 07:51:19;;;;;;;1999.90;999.90;;;18.70;99.90;;;;;;5051400;28;20462;-66
2022/07/22 07:53:46;;;;;;;1999.90;999.90;;;18.70;99.90;;;;;;5055054;28;21079;-66
2022/07/22 07:56:14;;;;;;;1999.90;999.90;;;18.60;99.90;;;;;;5054303;28;20879;-69
2022/07/22 07:58:40;;;;;;;1999.90;999.90;;;18.60;99.90;;;;;;5055037;28;20877;-68
2022/07/22 08:01:07;;;;;;;1999.90;999.90;;;18.50;99.90;;;;;;5050727;28;20551;-69
2022/07/22 08:03:34;;;;;;;1999.90;999.90;;;18.50;99.90;;;;;;5054789;28;20492;-69
2022/07/22 11:51:09;;;;;;;1999.90;999.90;;;22.80;99.90;;;;;;5032788;28;20609;-69
2022/07/22 11:53:36;;;;;;;1999.90;999.90;;;24.20;99.90;;;;;;5022158;28;20967;-71
2022/07/22 11:56:05;;;;;;;1999.90;999.90;;;23.70;99.90;;;;;;5010672;22;20562;-73
2022/07/22 11:58:40;;;;;;;1999.90;999.90;;;23.20;99.90;;;;;;4980589;28;20500;-73
2022/07/22 12:01:07;;;;;;;1999.90;999.90;;;23.20;99.90;;;;;;4977638;28;20464;-73
2022/07/22 12:03:36;;;;;;;1999.90;999.90;;;23.20;99.90;;;;;;4980663;28;20469;-74
2022/07/22 12:06:03;;;;;;;1999.90;999.90;;;23.20;99.90;;;;;;4975471;28;20486;-73
2022/07/22 12:08:32;;;;;;;1999.90;999.90;;;23.30;99.90;;;;;;4976381;28;20519;-73
2022/07/22 12:10:59;;;;;;;1999.90;999.90;;;23.00;99.90;;;;;;4972123;28;20955;-74
2022/07/22 12:13:31;;;;;;;1999.90;999.90;;;22.80;99.90;;;;;;4991534;28;20524;-71
2022/07/22 12:15:58;;;;;;;1999.90;999.90;;;22.60;99.90;;;;;;4976906;28;21137;-74
2022/07/22 12:18:28;;;;;;;1999.90;999.90;;;22.70;99.90;;;;;;4970471;28;20962;-73
2022/07/22 12:20:56;;;;;;;1999.90;999.90;;;23.00;99.90;;;;;;4971749;28;20469;-72
2022/07/22 12:23:25;;;;;;;1999.90;999.90;;;23.20;99.90;;;;;;4979595;28;20462;-73
2022/07/22 12:25:56;;;;;;;1999.90;999.90;;;23.30;99.90;;;;;;4976044;28;20485;-73
2022/07/22 12:28:23;;;;;;;1999.90;999.90;;;23.40;99.90;;;;;;4982366;28;20962;-74
2022/07/22 12:30:51;;;;;;;1999.90;999.90;;;23.40;99.90;;;;;;4983361;28;20461;-74
2022/07/22 12:33:19;;;;;;;1999.90;999.90;;;23.30;99.90;;;;;;4982910;28;20503;-71
2022/07/22 12:36:01;;;;;;;1999.90;999.90;;;23.30;99.90;;;;;;4983342;28;20534;-73
2022/07/22 12:38:27;;;;;;;1999.90;999.90;;;23.50;99.90;;;;;;4975526;28;20977;-72
2022/07/22 12:40:55;;;;;;;1999.90;999.90;;;23.50;99.90;;;;;;4981328;28;20995;-74
2022/07/22 12:43:26;;;;;;;1999.90;999.90;;;23.70;99.90;;;;;;4981125;28;20465;-72
2022/07/22 12:45:53;;;;;;;1999.90;999.90;;;23.80;99.90;;;;;;4982824;28;20535;-72
2022/07/22 12:48:20;;;;;;;1999.90;999.90;;;23.90;99.90;;;;;;4983808;28;20973;-72
2022/07/22 12:50:57;;;;;;;1999.90;999.90;;;23.70;99.90;;;;;;4975158;28;21044;-72
2022/07/22 12:53:24;;;;;;;1999.90;999.90;;;23.60;99.90;;;;;;4961655;28;20509;-72
2022/07/22 12:55:54;;;;;;;1999.90;999.90;;;23.30;99.90;;;;;;4967547;28;20493;-71
2022/07/22 12:58:25;;;;;;;1999.90;999.90;;;23.50;99.90;;;;;;4965924;28;20457;-72
2022/07/22 13:00:53;;;;;;;1999.90;999.90;;;23.40;99.90;;;;;;4969130;28;20490;-73
2022/07/22 13:03:21;;;;;;;1999.90;999.90;;;23.50;99.90;;;;;;4962993;28;20475;-70
2022/07/22 13:05:49;;;;;;;1999.90;999.90;;;23.60;99.90;;;;;;4964421;28;20513;-73
2022/07/22 13:08:15;;;;;;;1999.90;999.90;;;23.70;99.90;;;;;;4961062;28;20849;-74
2022/07/22 13:10:42;;;;;;;1999.90;999.90;;;23.90;99.90;;;;;;4964398;28;20966;-72
2022/07/22 13:13:09;;;;;;;1999.90;999.90;;;23.70;99.90;;;;;;4964321;28;20507;-73
2022/07/22 13:15:38;;;;;;;1999.90;999.90;;;23.80;99.90;;;;;;4965644;28;20541;-71
2022/07/22 13:18:05;;;;;;;1999.90;999.90;;;24.00;99.90;;;;;;4966032;28;20820;-73
2022/07/22 13:20:32;;;;;;;1999.90;999.90;;;24.00;99.90;;;;;;4968407;28;20493;-73
2022/07/22 13:22:59;;;;;;;1999.90;999.90;;;24.00;99.90;;;;;;4965415;28;20462;-74
2022/07/22 13:25:26;;;;;;;1999.90;999.90;;;23.50;99.90;;;;;;4957570;28;20486;-72
2022/07/22 13:27:53;;;;;;;1999.90;999.90;;;23.30;99.90;;;;;;4956574;28;20970;-73
2022/07/22 13:30:19;;;;;;;1999.90;999.90;;;23.10;99.90;;;;;;4961822;28;20462;-72
2022/07/22 13:32:47;;;;;;;1999.90;999.90;;;23.20;99.90;;;;;;4968783;28;20462;-71
2022/07/22 13:35:14;;;;;;;1999.90;999.90;;;23.40;99.90;;;;;;4962326;28;20487;-72
2022/07/22 13:37:41;;;;;;;1999.90;999.90;;;23.40;99.90;;;;;;4959650;28;20527;-71
2022/07/22 13:40:10;;;;;;;1999.90;999.90;;;23.70;99.90;;;;;;4960123;28;20497;-74
2022/07/22 13:42:36;;;;;;;1999.90;999.90;;;23.60;99.90;;;;;;4962646;28;20477;-72
2022/07/22 13:45:04;;;;;;;1999.90;999.90;;;23.40;99.90;;;;;;4963587;28;20505;-73
2022/07/22 13:47:30;;;;;;;1999.90;999.90;;;23.40;99.90;;;;;;4962476;28;20993;-74
2022/07/22 13:49:58;;;;;;;1999.90;999.90;;;23.40;99.90;;;;;;4967056;28;20829;-73
2022/07/22 13:52:25;;;;;;;1999.90;999.90;;;23.60;99.90;;;;;;4956963;28;20459;-70
2022/07/22 13:54:51;;;;;;;1999.90;999.90;;;23.60;99.90;;;;;;4966723;28;20494;-72
2022/07/22 13:57:18;;;;;;;1999.90;999.90;;;23.60;99.90;;;;;;4958916;28;20533;-72
2022/07/22 13:59:45;;;;;;;1999.90;999.90;;;23.60;99.90;;;;;;4968114;28;20544;-73
2022/07/22 14:02:12;;;;;;;1999.90;999.90;;;23.40;99.90;;;;;;4963228;28;20873;-74
2022/07/22 14:04:38;;;;;;;1999.90;999.90;;;23.10;99.90;;;;;;4968689;28;20566;-74
2022/07/22 14:07:06;;;;;;;1999.90;999.90;;;23.10;99.90;;;;;;4960546;28;20470;-73
2022/07/22 14:09:33;;;;;;;1999.90;999.90;;;23.40;99.90;;;;;;4961148;28;20462;-74
2022/07/22 14:12:00;;;;;;;1999.90;999.90;;;23.60;99.90;;;;;;4966099;28;20462;-74
2022/07/22 14:14:26;;;;;;;1999.90;999.90;;;23.80;99.90;;;;;;4971384;28;20466;-74
2022/07/22 14:16:53;;;;;;;1999.90;999.90;;;24.00;99.90;;;;;;4962187;28;20451;-73
2022/07/22 14:19:19;;;;;;;1999.90;999.90;;;23.80;99.90;;;;;;4957405;28;20494;-72
2022/07/22 14:21:47;;;;;;;1999.90;999.90;;;23.80;99.90;;;;;;4959605;28;20837;-73
2022/07/22 14:24:15;;;;;;;1999.90;999.90;;;23.90;99.90;;;;;;4965040;28;20498;-72
2022/07/22 14:26:42;;;;;;;1999.90;999.90;;;24.00;99.90;;;;;;4968764;28;20542;-72
2022/07/22 14:29:09;;;;;;;1999.90;999.90;;;24.10;99.90;;;;;;4955658;28;20499;-73
2022/07/22 14:31:35;;;;;;;1999.90;999.90;;;24.10;99.90;;;;;;4958382;28;20467;-74
2022/07/22 14:34:02;;;;;;;1999.90;999.90;;;23.90;99.90;;;;;;4970905;28;20446;-74
2022/07/22 14:36:29;;;;;;;1999.90;999.90;;;23.70;99.90;;;;;;4970956;28;20512;-73
2022/07/22 14:38:55;;;;;;;1999.90;999.90;;;23.60;99.90;;;;;;4968395;28;20547;-74
2022/07/22 14:41:23;;;;;;;1999.90;999.90;;;23.60;99.90;;;;;;4962653;28;20486;-73
2022/07/22 14:43:50;;;;;;;1999.90;999.90;;;23.40;99.90;;;;;;4960370;28;20458;-73
2022/07/22 14:46:17;;;;;;;1999.90;999.90;;;23.50;99.90;;;;;;4963681;28;21002;-73
2022/07/22 14:48:45;;;;;;;1999.90;999.90;;;23.50;99.90;;;;;;4959820;28;20458;-73
2022/07/22 14:51:12;;;;;;;1999.90;999.90;;;23.70;99.90;;;;;;4964429;28;20454;-74
2022/07/22 14:53:38;;;;;;;1999.90;999.90;;;23.70;99.90;;;;;;4959508;28;21028;-73
2022/07/22 14:56:05;;;;;;;1999.90;999.90;;;23.60;99.90;;;;;;4968647;28;20490;-74
2022/07/22 14:58:33;;;;;;;1999.90;999.90;;;23.50;99.90;;;;;;4963448;28;20471;-74
2022/07/22 15:01:00;;;;;;;1999.90;999.90;;;23.80;99.90;;;;;;4964520;28;20563;-74
2022/07/22 15:03:26;;;;;;;1999.90;999.90;;;24.00;99.90;;;;;;4966818;28;20466;-73
2022/07/22 15:05:53;;;;;;;1999.90;999.90;;;24.00;99.90;;;;;;4964757;28;20631;-74
2022/07/22 15:08:20;;;;;;;1999.90;999.90;;;24.00;99.90;;;;;;4964073;28;20462;-74
2022/07/22 15:10:47;;;;;;;1999.90;999.90;;;23.80;99.90;;;;;;4963983;28;21151;-73
2022/07/22 15:13:13;;;;;;;1999.90;999.90;;;23.70;99.90;;;;;;4961794;28;20466;-73
2022/07/22 15:15:41;;;;;;;1999.90;999.90;;;23.70;99.90;;;;;;4963115;28;20570;-72
2022/07/22 15:18:08;;;;;;;1999.90;999.90;;;23.70;99.90;;;;;;4964823;28;21196;-73
2022/07/22 15:20:37;;;;;;;1999.90;999.90;;;23.70;99.90;;;;;;4957992;28;20548;-74
2022/07/22 15:23:04;;;;;;;1999.90;999.90;;;23.80;99.90;;;;;;4964658;28;20899;-74
2022/07/22 15:25:30;;;;;;;1999.90;999.90;;;23.70;99.90;;;;;;4964207;28;20485;-73
2022/07/22 15:27:57;;;;;;;1999.90;999.90;;;23.70;99.90;;;;;;4960086;28;20467;-70
2022/07/22 15:30:25;;;;;;;1999.90;999.90;;;23.80;99.90;;;;;;4959685;28;20470;-74
2022/07/22 15:32:53;;;;;;;1999.90;999.90;;;24.00;99.90;;;;;;4958792;28;20470;-74
2022/07/22 15:35:19;;;;;;;1999.90;999.90;;;24.10;99.90;;;;;;4962805;28;20909;-74
2022/07/22 15:37:46;;;;;;;1999.90;999.90;;;24.00;99.90;;;;;;4958597;28;20483;-74
2022/07/22 15:40:13;;;;;;;1999.90;999.90;;;23.70;99.90;;;;;;4960893;28;20490;-74
2022/07/22 15:42:40;;;;;;;1999.90;999.90;;;23.60;99.90;;;;;;4961107;28;20469;-73